Time;durP1;ratioP1;P1;durP2;ratioP2;P2;SDS_P1;SDS_P2;PMS_P1;PMS_P2;Temp;Humidity;BMP_temperature;BMP_pressure;BME280_temperature;BME280_humidity;BME280_pressure;Samples;Min_cycle;Max_cycle;Signal;HPM_P1;HPM_P2
2023/05/28 00:02:36;;;;;;;;;;;;;;;28.71;30.50;96403.16;4996180;28;19953;-53
2023/05/28 00:05:06;;;;;;;;;;;;;;;28.64;30.56;96406.09;4996524;28;19972;-54
2023/05/28 00:07:34;;;;;;;;;;;;;;;28.20;31.16;96402.72;4991903;28;20883;-59
2023/05/28 00:10:02;;;;;;;;;;;;;;;28.18;31.26;96408.41;4996462;28;19968;-54
2023/05/28 00:12:30;;;;;;;;;;;;;;;28.05;31.27;96398.00;4995362;28;20432;-54
2023/05/28 00:14:59;;;;;;;;;;;;;;;28.27;31.13;96400.63;4992576;28;19968;-53
2023/05/28 00:17:27;;;;;;;;;;;;;;;28.27;31.12;96397.91;4997464;28;20406;-56
2023/05/28 00:19:55;;;;;;;;;;;;;;;28.02;31.40;96393.09;4998313;28;19968;-55
2023/05/28 00:22:26;;;;;;;;;;;;;;;27.96;31.56;96396.81;4993300;28;19973;-56
2023/05/28 00:24:54;;;;;;;;;;;;;;;27.75;31.82;96396.59;4994054;28;20008;-56
2023/05/28 00:27:25;;;;;;;;;;;;;;;27.87;31.51;96394.59;4998071;28;19953;-53
2023/05/28 00:29:53;;;;;;;;;;;;;;;27.77;31.63;96391.78;4988313;28;19957;-52
2023/05/28 00:32:21;;;;;;;;;;;;;;;27.97;31.42;96393.84;4993765;28;19960;-53
2023/05/28 00:34:49;;;;;;;;;;;;;;;27.56;31.89;96387.97;4992112;28;19991;-55
2023/05/28 00:37:17;;;;;;;;;;;;;;;27.32;32.31;96384.72;4991356;28;19967;-57
2023/05/28 00:39:46;;;;;;;;;;;;;;;27.18;32.52;96380.75;4988909;28;20412;-54
2023/05/28 00:42:14;;;;;;;;;;;;;;;27.15;32.44;96383.97;4996400;28;19973;-59
2023/05/28 00:44:43;;;;;;;;;;;;;;;26.67;33.26;96386.28;4995561;28;19956;-53
2023/05/28 00:47:12;;;;;;;;;;;;;;;27.15;32.52;96383.97;4996085;28;19961;-56
2023/05/28 00:49:41;;;;;;;;;;;;;;;27.09;32.48;96385.78;4992327;28;19960;-59
2023/05/28 00:52:08;;;;;;;;;;;;;;;27.07;32.82;96387.09;5002039;28;19976;-59
2023/05/28 00:54:36;;;;;;;;;;;;;;;26.95;32.79;96389.94;4997078;28;19964;-60
2023/05/28 00:57:06;;;;;;;;;;;;;;;27.03;32.68;96380.53;4993450;28;19967;-59
2023/05/28 00:59:35;;;;;;;;;;;;;;;27.04;32.49;96374.06;4994042;28;19968;-58
2023/05/28 01:02:03;;;;;;;;;;;;;;;27.33;32.34;96370.13;4994121;28;20052;-53
2023/05/28 01:04:32;;;;;;;;;;;;;;;27.49;32.08;96378.41;4994185;28;20009;-50
2023/05/28 01:07:00;;;;;;;;;;;;;;;27.53;31.84;96384.94;4996792;28;19961;-57
2023/05/28 01:09:28;;;;;;;;;;;;;;;27.62;31.70;96370.69;4993926;28;20395;-58
2023/05/28 01:11:56;;;;;;;;;;;;;;;27.74;31.51;96369.75;4991388;28;19971;-55
2023/05/28 01:14:25;;;;;;;;;;;;;;;27.77;31.86;96369.25;4997078;28;19957;-51
2023/05/28 01:16:53;;;;;;;;;;;;;;;27.18;32.07;96372.63;4988994;28;19976;-60
2023/05/28 01:19:27;;;;;;;;;;;;;;;27.78;31.50;96366.31;4995958;28;19960;-54
2023/05/28 01:21:57;;;;;;;;;;;;;;;27.48;31.69;96368.66;4997611;28;21080;-56
2023/05/28 01:24:28;;;;;;;;;;;;;;;27.26;31.97;96365.97;4996186;28;19953;-59
2023/05/28 01:26:56;;;;;;;;;;;;;;;27.49;31.74;96364.88;5001115;28;19999;-51
2023/05/28 01:29:24;;;;;;;;;;;;;;;27.57;31.70;96367.16;4990370;28;19977;-57
2023/05/28 01:31:52;;;;;;;;;;;;;;;27.04;32.06;96365.94;4988320;28;19960;-55
2023/05/28 01:34:20;;;;;;;;;;;;;;;27.34;31.77;96365.53;4994111;28;20361;-55
2023/05/28 01:36:50;;;;;;;;;;;;;;;27.66;31.49;96362.88;4997868;28;19968;-54
2023/05/28 01:39:19;;;;;;;;;;;;;;;27.77;31.30;96363.81;4988757;28;19953;-60
2023/05/28 01:41:48;;;;;;;;;;;;;;;27.51;31.77;96357.31;4998368;28;19981;-55
2023/05/28 01:44:18;;;;;;;;;;;;;;;27.68;31.26;96361.56;4993557;28;19957;-59
2023/05/28 01:46:46;;;;;;;;;;;;;;;27.57;31.45;96354.41;4995658;28;20459;-53
2023/05/28 01:49:15;;;;;;;;;;;;;;;27.71;31.28;96365.66;4996308;28;22456;-56
2023/05/28 01:51:43;;;;;;;;;;;;;;;27.56;31.35;96355.47;4992002;28;19957;-57
2023/05/28 01:54:11;;;;;;;;;;;;;;;27.83;30.96;96352.78;4996657;28;19964;-57
2023/05/28 01:56:39;;;;;;;;;;;;;;;27.12;31.62;96358.25;4994660;28;19969;-60
2023/05/28 01:59:08;;;;;;;;;;;;;;;27.15;31.86;96363.16;4994910;28;19960;-52
2023/05/28 02:01:36;;;;;;;;;;;;;;;27.26;31.88;96363.28;5000471;28;19953;-49
2023/05/28 02:04:05;;;;;;;;;;;;;;;27.83;31.05;96362.81;4993708;28;19969;-58
2023/05/28 02:06:34;;;;;;;;;;;;;;;27.78;31.17;96357.34;4988582;28;20468;-53
2023/05/28 02:09:02;;;;;;;;;;;;;;;27.98;30.85;96359.41;4991641;28;19948;-51
2023/05/28 02:11:30;;;;;;;;;;;;;;;27.85;31.03;96357.97;4997194;28;20398;-54
2023/05/28 02:13:59;;;;;;;;;;;;;;;27.36;31.48;96355.28;4989657;28;19953;-59
2023/05/28 02:16:29;;;;;;;;;;;;;;;27.69;31.30;96349.63;4994907;28;19976;-56
2023/05/28 02:18:58;;;;;;;;;;;;;;;27.24;31.46;96354.56;4999917;28;19979;-60
2023/05/28 02:21:28;;;;;;;;;;;;;;;27.33;32.04;96351.16;4992750;28;19963;-55
2023/05/28 02:23:56;;;;;;;;;;;;;;;27.30;31.87;96348.16;4991335;28;19992;-52
2023/05/28 02:26:25;;;;;;;;;;;;;;;27.24;31.97;96349.16;4992869;28;19979;-59
2023/05/28 02:28:53;;;;;;;;;;;;;;;27.11;32.16;96348.44;4992458;28;20007;-56
2023/05/28 02:31:21;;;;;;;;;;;;;;;27.06;32.17;96358.41;4994899;28;19956;-60
2023/05/28 02:33:50;;;;;;;;;;;;;;;27.17;32.30;96349.34;4996786;28;19961;-56
2023/05/28 02:36:18;;;;;;;;;;;;;;;26.90;32.29;96352.78;4992199;28;19960;-57
2023/05/28 02:38:46;;;;;;;;;;;;;;;26.67;32.89;96358.41;4995300;28;19949;-57
2023/05/28 02:41:14;;;;;;;;;;;;;;;26.85;32.76;96344.59;4992136;28;19972;-57
2023/05/28 02:43:43;;;;;;;;;;;;;;;26.95;32.24;96357.44;4989342;28;20405;-55
2023/05/28 02:46:11;;;;;;;;;;;;;;;26.70;33.02;96358.75;4997393;28;19972;-53
2023/05/28 02:48:39;;;;;;;;;;;;;;;26.74;32.61;96359.06;4996891;28;20448;-58
2023/05/28 02:51:08;;;;;;;;;;;;;;;26.82;32.64;96352.41;4991723;28;19967;-55
2023/05/28 02:53:36;;;;;;;;;;;;;;;26.83;32.80;96354.03;4991807;28;19960;-55
2023/05/28 02:56:05;;;;;;;;;;;;;;;26.66;32.58;96362.19;4989492;28;20377;-55
2023/05/28 02:58:33;;;;;;;;;;;;;;;26.79;32.66;96347.47;4997058;28;19949;-57
2023/05/28 03:01:01;;;;;;;;;;;;;;;26.57;33.16;96355.59;5000833;28;20420;-58
2023/05/28 03:03:29;;;;;;;;;;;;;;;26.33;33.26;96358.44;5000925;28;20056;-59
2023/05/28 03:05:57;;;;;;;;;;;;;;;26.21;33.71;96358.50;4997463;28;19969;-59
2023/05/28 03:08:27;;;;;;;;;;;;;;;26.36;33.41;96363.34;5000753;28;19971;-57
2023/05/28 03:10:55;;;;;;;;;;;;;;;26.07;33.56;96367.19;4994467;28;19964;-55
2023/05/28 03:13:23;;;;;;;;;;;;;;;26.47;32.99;96364.34;4998168;28;19964;-53
2023/05/28 03:15:51;;;;;;;;;;;;;;;26.43;33.09;96360.50;5000477;28;19964;-55
2023/05/28 03:18:19;;;;;;;;;;;;;;;25.86;33.56;96366.84;4994272;28;19972;-55
2023/05/28 03:20:47;;;;;;;;;;;;;;;26.69;32.82;96364.41;5002105;28;19964;-52
2023/05/28 03:23:16;;;;;;;;;;;;;;;26.22;33.29;96367.44;4999746;28;20365;-59
2023/05/28 03:25:45;;;;;;;;;;;;;;;26.54;33.14;96366.91;4998004;28;19979;-57
2023/05/28 03:28:14;;;;;;;;;;;;;;;26.69;32.61;96367.09;4982014;28;19973;-61
2023/05/28 03:30:42;;;;;;;;;;;;;;;26.66;32.54;96371.09;4998588;28;19967;-54
2023/05/28 03:33:10;;;;;;;;;;;;;;;26.49;32.89;96370.31;5005850;28;19968;-54
2023/05/28 03:35:38;;;;;;;;;;;;;;;26.93;32.22;96360.38;5001224;28;20017;-59
2023/05/28 03:38:06;;;;;;;;;;;;;;;27.02;32.12;96368.91;4997204;28;19957;-55
2023/05/28 03:40:34;;;;;;;;;;;;;;;26.96;32.23;96365.31;5006102;28;20220;-54
2023/05/28 03:43:05;;;;;;;;;;;;;;;27.06;32.27;96372.75;5010282;28;19968;-54
2023/05/28 03:45:33;;;;;;;;;;;;;;;27.22;31.90;96368.38;5001132;28;20413;-56
2023/05/28 03:48:02;;;;;;;;;;;;;;;26.92;32.40;96360.66;5003092;28;19965;-54
2023/05/28 03:50:30;;;;;;;;;;;;;;;26.74;32.54;96365.28;5005629;28;19968;-55
2023/05/28 03:52:58;;;;;;;;;;;;;;;26.86;32.76;96367.06;5002618;28;20731;-61
2023/05/28 03:55:26;;;;;;;;;;;;;;;26.99;32.08;96367.50;5002860;28;20338;-55
2023/05/28 03:57:54;;;;;;;;;;;;;;;27.55;31.47;96356.53;5002113;28;19964;-56
2023/05/28 04:00:24;;;;;;;;;;;;;;;28.12;31.15;96356.03;5005086;28;19956;-57
2023/05/28 04:02:52;;;;;;;;;;;;;;;28.93;29.92;96357.66;5002906;28;19983;-57
2023/05/28 04:05:20;;;;;;;;;;;;;;;28.98;30.00;96365.84;5005165;28;19952;-54
2023/05/28 04:07:49;;;;;;;;;;;;;;;29.20;29.76;96354.84;5009278;28;19969;-55
2023/05/28 04:10:17;;;;;;;;;;;;;;;29.18;29.08;96364.31;5008029;28;20625;-55
2023/05/28 04:12:45;;;;;;;;;;;;;;;29.88;28.79;96349.34;5005805;28;19956;-55
2023/05/28 04:15:13;;;;;;;;;;;;;;;30.03;28.45;96360.22;5003289;28;19960;-51
2023/05/28 04:17:42;;;;;;;;;;;;;;;29.90;28.70;96362.66;5005995;28;20468;-52
2023/05/28 04:20:12;;;;;;;;;;;;;;;31.40;27.29;96360.28;5000002;28;19959;-54
2023/05/28 04:22:40;;;;;;;;;;;;;;;31.36;27.50;96359.22;5003451;28;20364;-56
2023/05/28 04:25:08;;;;;;;;;;;;;;;30.99;27.48;96368.59;5007209;28;20401;-59
2023/05/28 04:27:40;;;;;;;;;;;;;;;31.29;27.07;96372.31;5004739;28;19973;-55
2023/05/28 04:30:09;;;;;;;;;;;;;;;31.67;26.86;96368.06;5003889;28;19964;-58
2023/05/28 04:32:39;;;;;;;;;;;;;;;32.23;26.51;96369.59;5000274;28;19968;-56
2023/05/28 04:35:09;;;;;;;;;;;;;;;32.95;25.66;96370.59;4999196;28;20364;-60
2023/05/28 04:37:39;;;;;;;;;;;;;;;32.39;26.53;96382.03;5007286;28;19979;-60
2023/05/28 04:40:11;;;;;;;;;;;;;;;32.74;25.90;96371.91;5005351;28;19967;-57
2023/05/28 04:42:40;;;;;;;;;;;;;;;31.95;26.55;96382.09;5001096;28;20397;-60
2023/05/28 04:45:08;;;;;;;;;;;;;;;32.89;25.77;96374.47;5003540;28;19957;-57
2023/05/28 04:47:37;;;;;;;;;;;;;;;32.72;25.89;96385.84;4999379;28;20068;-57
2023/05/28 04:50:06;;;;;;;;;;;;;;;32.37;26.40;96376.03;4985865;28;19926;-58
2023/05/28 04:52:37;;;;;;;;;;;;;;;32.30;26.24;96387.28;4998211;28;19968;-55
2023/05/28 04:55:05;;;;;;;;;;;;;;;32.26;26.27;96383.50;4998489;28;20316;-54
2023/05/28 04:57:33;;;;;;;;;;;;;;;32.37;26.21;96384.22;5001007;28;19969;-56
2023/05/28 05:00:02;;;;;;;;;;;;;;;33.79;25.38;96381.06;5005744;28;20071;-58
2023/05/28 05:02:30;;;;;;;;;;;;;;;31.89;26.36;96393.03;5003417;28;20449;-58
2023/05/28 05:04:58;;;;;;;;;;;;;;;33.35;25.93;96389.56;4997178;28;19949;-57
2023/05/28 05:07:26;;;;;;;;;;;;;;;32.89;25.88;96385.41;5002399;28;19956;-56
2023/05/28 05:09:56;;;;;;;;;;;;;;;32.90;25.71;96394.41;5002863;28;19984;-58
2023/05/28 05:12:24;;;;;;;;;;;;;;;32.93;25.56;96385.63;5003306;28;19972;-58
2023/05/28 05:14:52;;;;;;;;;;;;;;;33.82;25.33;96385.13;5005453;28;20128;-54
2023/05/28 05:17:20;;;;;;;;;;;;;;;33.41;25.60;96385.66;5006077;28;20451;-55
2023/05/28 05:19:48;;;;;;;;;;;;;;;31.41;27.22;96389.16;4999421;28;19957;-56
2023/05/28 05:22:16;;;;;;;;;;;;;;;33.05;26.02;96391.56;4999531;28;19963;-53
2023/05/28 05:24:44;;;;;;;;;;;;;;;33.47;25.25;96398.16;5001478;28;19976;-56
2023/05/28 05:27:13;;;;;;;;;;;;;;;32.45;26.68;96388.28;5007403;28;19960;-53
2023/05/28 05:29:41;;;;;;;;;;;;;;;33.78;25.63;96384.91;5002397;28;19957;-56
2023/05/28 05:32:09;;;;;;;;;;;;;;;32.16;26.59;96391.75;4997233;28;19971;-54
2023/05/28 05:34:38;;;;;;;;;;;;;;;32.10;26.67;96385.50;5008395;28;19965;-52
2023/05/28 05:37:06;;;;;;;;;;;;;;;32.39;26.59;96393.75;4996314;28;19972;-49
2023/05/28 05:39:34;;;;;;;;;;;;;;;33.04;25.98;96392.66;4990679;28;19975;-49
2023/05/28 05:42:02;;;;;;;;;;;;;;;31.36;27.19;96395.47;5003668;28;20028;-47
2023/05/28 05:44:31;;;;;;;;;;;;;;;32.05;27.10;96393.75;5002191;28;20353;-47
2023/05/28 05:46:59;;;;;;;;;;;;;;;31.79;27.70;96398.50;5005627;28;20433;-48
2023/05/28 05:49:28;;;;;;;;;;;;;;;31.51;27.92;96396.50;5003017;28;19960;-50
2023/05/28 05:51:56;;;;;;;;;;;;;;;32.95;27.02;96394.34;5004588;28;20413;-50
2023/05/28 05:54:24;;;;;;;;;;;;;;;32.61;26.79;96393.31;5000714;28;19964;-48
2023/05/28 05:56:52;;;;;;;;;;;;;;;30.72;28.33;96398.84;5007838;28;19964;-51
2023/05/28 05:59:20;;;;;;;;;;;;;;;31.35;28.23;96393.84;5005821;28;19956;-47
2023/05/28 06:01:50;;;;;;;;;;;;;;;32.48;27.47;96388.50;4994000;28;20624;-55
2023/05/28 06:04:18;;;;;;;;;;;;;;;31.90;28.13;96391.09;4995171;28;20595;-55
2023/05/28 06:06:46;;;;;;;;;;;;;;;32.05;28.07;96385.56;4991239;28;19969;-54
2023/05/28 06:09:14;;;;;;;;;;;;;;;30.40;29.52;96396.44;4994578;28;20558;-54
2023/05/28 06:11:42;;;;;;;;;;;;;;;30.78;29.50;96392.34;4994036;28;20394;-54
2023/05/28 06:14:10;;;;;;;;;;;;;;;30.13;30.00;96391.22;4992831;28;20513;-54
2023/05/28 06:16:38;;;;;;;;;;;;;;;30.08;30.16;96399.41;4995284;28;20335;-48
2023/05/28 06:19:07;;;;;;;;;;;;;;;29.45;30.85;96394.84;4991362;28;19987;-49
2023/05/28 06:21:36;;;;;;;;;;;;;;;29.45;30.57;96400.28;4989023;28;20072;-48
2023/05/28 06:24:05;;;;;;;;;;;;;;;29.10;30.91;96398.25;4992263;28;20459;-49
2023/05/28 06:26:33;;;;;;;;;;;;;;;29.12;31.36;96403.44;4994696;28;19957;-50
2023/05/28 06:29:01;;;;;;;;;;;;;;;31.74;28.81;96386.84;4989509;28;19953;-47
2023/05/28 06:31:29;;;;;;;;;;;;;;;31.24;28.69;96396.84;4994828;28;20382;-55
2023/05/28 06:33:58;;;;;;;;;;;;;;;30.64;29.49;96392.06;4994455;28;19972;-49
2023/05/28 06:36:27;;;;;;;;;;;;;;;30.50;29.73;96399.16;4996365;28;19963;-49
2023/05/28 06:38:55;;;;;;;;;;;;;;;30.59;29.16;96393.97;4997832;28;19965;-48
2023/05/28 06:41:23;;;;;;;;;;;;;;;31.74;28.36;96389.56;4998861;28;19957;-49
2023/05/28 06:43:51;;;;;;;;;;;;;;;30.09;29.34;96390.16;4995029;28;19961;-48
2023/05/28 06:46:21;;;;;;;;;;;;;;;31.23;28.76;96400.66;5000259;28;20378;-51
2023/05/28 06:48:49;;;;;;;;;;;;;;;31.33;29.05;96403.38;4998336;28;19957;-52
2023/05/28 06:51:17;;;;;;;;;;;;;;;30.58;28.89;96400.50;4998968;28;19960;-47
2023/05/28 06:53:46;;;;;;;;;;;;;;;31.29;28.34;96405.81;5004267;28;19967;-48
2023/05/28 06:56:14;;;;;;;;;;;;;;;30.08;29.42;96408.38;4994526;28;19961;-49
2023/05/28 06:58:42;;;;;;;;;;;;;;;30.77;29.25;96393.44;5001357;28;19972;-49
2023/05/28 07:01:10;;;;;;;;;;;;;;;31.73;28.89;96402.38;4993846;28;20057;-50
2023/05/28 07:03:38;;;;;;;;;;;;;;;30.99;29.08;96406.72;4992084;28;19961;-49
2023/05/28 07:06:07;;;;;;;;;;;;;;;30.40;28.83;96402.69;4994516;28;19968;-48
2023/05/28 07:08:35;;;;;;;;;;;;;;;31.01;28.29;96401.03;4998460;28;19972;-48
2023/05/28 07:11:04;;;;;;;;;;;;;;;31.37;28.06;96399.00;4996708;28;19957;-49
2023/05/28 07:13:33;;;;;;;;;;;;;;;30.28;28.85;96404.84;4992698;28;19968;-46
2023/05/28 07:16:01;;;;;;;;;;;;;;;31.49;27.72;96395.94;5001006;28;19964;-50
2023/05/28 07:18:29;;;;;;;;;;;;;;;30.02;29.29;96404.00;4996689;28;20353;-49
2023/05/28 07:20:57;;;;;;;;;;;;;;;30.96;28.48;96390.94;4998961;28;19957;-51
2023/05/28 07:23:25;;;;;;;;;;;;;;;32.39;27.29;96398.41;5000235;28;20024;-47
2023/05/28 07:25:53;;;;;;;;;;;;;;;31.75;27.63;96393.91;5002082;28;20042;-51
2023/05/28 07:28:23;;;;;;;;;;;;;;;31.34;28.51;96394.91;5002308;28;19964;-48
2023/05/28 07:30:51;;;;;;;;;;;;;;;31.39;28.10;96389.47;4996969;28;19965;-50
2023/05/28 07:33:19;;;;;;;;;;;;;;;32.87;27.13;96387.63;4996403;28;19964;-49
2023/05/28 07:35:47;;;;;;;;;;;;;;;32.64;27.54;96402.84;4997577;28;19949;-51
2023/05/28 07:38:15;;;;;;;;;;;;;;;31.92;27.28;96395.19;4997120;28;19961;-52
2023/05/28 07:40:43;;;;;;;;;;;;;;;31.75;27.47;96392.00;4979306;28;19969;-49
2023/05/28 07:43:11;;;;;;;;;;;;;;;31.83;27.80;96385.97;5001508;28;19957;-48
2023/05/28 07:45:41;;;;;;;;;;;;;;;31.75;28.10;96396.63;4994246;28;20448;-49
2023/05/28 07:48:09;;;;;;;;;;;;;;;32.58;27.31;96390.34;4990596;28;19968;-49
2023/05/28 07:50:38;;;;;;;;;;;;;;;31.47;28.35;96393.50;4991568;28;19979;-45
2023/05/28 07:53:06;;;;;;;;;;;;;;;31.68;28.43;96386.84;4993353;28;19967;-49
2023/05/28 07:55:34;;;;;;;;;;;;;;;32.83;27.12;96390.13;5003867;28;20373;-51
2023/05/28 07:58:02;;;;;;;;;;;;;;;32.05;27.90;96391.03;4998545;28;19953;-47
2023/05/28 08:00:30;;;;;;;;;;;;;;;33.97;26.27;96387.66;4997234;28;19957;-50
2023/05/28 08:03:00;;;;;;;;;;;;;;;33.06;26.44;96393.16;4999959;28;19968;-49
2023/05/28 08:05:28;;;;;;;;;;;;;;;32.92;26.85;96389.47;4998926;28;20417;-51
2023/05/28 08:07:56;;;;;;;;;;;;;;;32.26;26.90;96385.41;4997435;28;19971;-51
2023/05/28 08:10:24;;;;;;;;;;;;;;;33.66;26.26;96381.81;4997148;28;19976;-46
2023/05/28 08:12:52;;;;;;;;;;;;;;;32.92;26.78;96384.00;4996840;28;19961;-46
2023/05/28 08:15:20;;;;;;;;;;;;;;;32.97;26.27;96389.47;5003283;28;19952;-47
2023/05/28 08:17:48;;;;;;;;;;;;;;;33.87;25.90;96374.94;4994621;28;19956;-47
2023/05/28 08:20:17;;;;;;;;;;;;;;;31.95;27.23;96379.38;4997159;28;19959;-47
2023/05/28 08:22:45;;;;;;;;;;;;;;;33.05;26.41;96386.09;5001332;28;19968;-47
2023/05/28 08:25:13;;;;;;;;;;;;;;;32.41;26.53;96384.47;4992350;28;19968;-55
2023/05/28 08:27:42;;;;;;;;;;;;;;;33.95;25.63;96378.94;4996358;28;19987;-49
2023/05/28 08:30:10;;;;;;;;;;;;;;;33.46;26.51;96383.66;4978170;28;19963;-49
2023/05/28 08:32:38;;;;;;;;;;;;;;;32.89;26.46;96381.84;4998068;28;19968;-46
2023/05/28 08:35:07;;;;;;;;;;;;;;;33.01;26.36;96377.66;4994003;28;19969;-51
2023/05/28 08:37:36;;;;;;;;;;;;;;;33.26;25.96;96375.72;4995428;28;19983;-46
2023/05/28 08:40:08;;;;;;;;;;;;;;;34.11;25.28;96374.88;4997229;28;19965;-46
2023/05/28 08:42:36;;;;;;;;;;;;;;;34.10;25.37;96367.75;4998636;28;19969;-52
2023/05/28 08:45:04;;;;;;;;;;;;;;;33.96;24.94;96361.38;4993871;28;19969;-51
2023/05/28 08:47:33;;;;;;;;;;;;;;;32.38;26.30;96380.38;5001647;28;19957;-48
2023/05/28 08:50:03;;;;;;;;;;;;;;;33.68;25.53;96363.16;4997119;28;19965;-47
2023/05/28 08:52:31;;;;;;;;;;;;;;;33.55;25.86;96364.72;4994520;28;19961;-51
2023/05/28 08:55:00;;;;;;;;;;;;;;;32.37;25.77;96376.03;4996612;28;19968;-50
2023/05/28 08:57:29;;;;;;;;;;;;;;;33.37;25.51;96371.75;4998279;28;19969;-51
2023/05/28 08:59:57;;;;;;;;;;;;;;;33.11;24.63;96368.53;5003335;28;19972;-54
2023/05/28 09:02:25;;;;;;;;;;;;;;;35.27;23.84;96361.34;4994134;28;19964;-50
2023/05/28 09:04:56;;;;;;;;;;;;;;;34.33;24.22;96371.50;4996855;28;19964;-46
2023/05/28 09:07:25;;;;;;;;;;;;;;;34.07;24.86;96368.38;4992847;28;19969;-49
2023/05/28 09:09:53;;;;;;;;;;;;;;;33.84;24.99;96367.31;4992851;28;19964;-53
2023/05/28 09:12:22;;;;;;;;;;;;;;;34.78;23.70;96368.31;4992909;28;19971;-51
2023/05/28 09:14:51;;;;;;;;;;;;;;;34.65;24.15;96367.16;4995991;28;19960;-47
2023/05/28 09:17:22;;;;;;;;;;;;;;;34.30;24.89;96363.88;5002922;28;19963;-49
2023/05/28 09:19:51;;;;;;;;;;;;;;;35.39;23.40;96345.19;4997701;28;20410;-51
2023/05/28 09:22:19;;;;;;;;;;;;;;;34.12;24.47;96351.88;4999011;28;20440;-48
2023/05/28 09:24:49;;;;;;;;;;;;;;;32.79;25.69;96359.00;4992460;28;20416;-52
2023/05/28 09:27:19;;;;;;;;;;;;;;;33.60;24.98;96344.69;4997150;28;19953;-47
2023/05/28 09:29:49;;;;;;;;;;;;;;;35.23;23.93;96349.38;4995330;28;19973;-51
2023/05/28 09:32:18;;;;;;;;;;;;;;;33.92;24.50;96343.94;4999093;28;20621;-46
2023/05/28 09:34:46;;;;;;;;;;;;;;;34.49;24.31;96347.44;4992731;28;19964;-50
2023/05/28 09:37:15;;;;;;;;;;;;;;;36.08;23.16;96347.81;4994789;28;20370;-51
2023/05/28 09:39:43;;;;;;;;;;;;;;;35.39;23.99;96346.00;4995784;28;19976;-47
2023/05/28 09:42:13;;;;;;;;;;;;;;;35.26;23.56;96348.75;4987299;28;20379;-47
2023/05/28 09:44:41;;;;;;;;;;;;;;;35.07;23.57;96348.88;4990686;28;19965;-47
2023/05/28 09:47:15;;;;;;;;;;;;;;;35.33;22.92;96341.72;4997838;28;19972;-47
2023/05/28 09:49:43;;;;;;;;;;;;;;;34.88;23.03;96341.50;4995205;28;20420;-46
2023/05/28 09:52:12;;;;;;;;;;;;;;;34.23;24.13;96347.03;4995658;28;19956;-46
2023/05/28 09:54:40;;;;;;;;;;;;;;;33.86;23.71;96345.13;4995022;28;20026;-46
2023/05/28 09:57:08;;;;;;;;;;;;;;;33.62;24.28;96332.38;4993294;28;19953;-47
2023/05/28 09:59:36;;;;;;;;;;;;;;;35.27;24.18;96336.66;4995938;28;19972;-47
2023/05/28 10:02:06;;;;;;;;;;;;;;;34.45;23.42;96338.19;4992754;28;20401;-46
2023/05/28 10:04:36;;;;;;;;;;;;;;;35.25;22.35;96336.97;4994610;28;19971;-46
2023/05/28 10:07:05;;;;;;;;;;;;;;;34.11;23.49;96333.03;5000105;28;19963;-47
2023/05/28 10:09:33;;;;;;;;;;;;;;;34.28;24.46;96338.75;4995026;28;19945;-48
2023/05/28 10:12:03;;;;;;;;;;;;;;;37.25;21.72;96333.75;5001371;28;20385;-51
2023/05/28 10:14:31;;;;;;;;;;;;;;;35.43;22.95;96330.53;4997023;28;20298;-49
2023/05/28 10:17:00;;;;;;;;;;;;;;;34.37;22.74;96344.34;5000132;28;19953;-51
2023/05/28 10:19:28;;;;;;;;;;;;;;;35.55;22.77;96330.06;5000224;28;19960;-52
2023/05/28 10:21:58;;;;;;;;;;;;;;;33.90;23.75;96340.72;5003655;28;19956;-48
2023/05/28 10:24:26;;;;;;;;;;;;;;;35.97;21.83;96324.44;4996550;28;19960;-50
2023/05/28 10:26:54;;;;;;;;;;;;;;;36.65;22.34;96331.56;4998225;28;19972;-55
2023/05/28 10:29:22;;;;;;;;;;;;;;;35.32;22.88;96337.38;4997756;28;19979;-54
2023/05/28 10:31:57;;;;;;;;;;;;;;;36.83;21.49;96336.00;4994412;28;19972;-51
2023/05/28 10:34:29;;;;;;;;;;;;;;;34.99;22.08;96344.88;4998862;28;19960;-53
2023/05/28 10:36:58;;;;;;;;;;;;;;;36.83;20.50;96333.25;4997101;28;19976;-51
2023/05/28 10:39:40;;;;;;;;;;;;;;;36.24;22.98;96323.53;4999983;28;19960;-52
2023/05/28 10:42:08;;;;;;;;;;;;;;;35.42;22.00;96322.63;4997149;28;19964;-48
2023/05/28 10:44:50;;;;;;;;;;;;;;;36.79;20.70;96315.78;5000259;28;20436;-48
2023/05/28 10:47:18;;;;;;;;;;;;;;;35.15;22.17;96324.28;5001281;28;20440;-48
2023/05/28 10:49:59;;;;;;;;;;;;;;;36.10;22.28;96318.91;4998878;28;19960;-49
2023/05/28 10:52:42;;;;;;;;;;;;;;;36.87;21.05;96316.94;4999210;28;20428;-51
2023/05/28 10:55:10;;;;;;;;;;;;;;;36.58;21.35;96311.94;5000514;28;19957;-47
2023/05/28 10:57:42;;;;;;;;;;;;;;;35.91;21.94;96318.25;5003810;28;19975;-46
2023/05/28 11:00:13;;;;;;;;;;;;;;;37.38;20.96;96310.00;5008859;28;20381;-46
2023/05/28 11:02:42;;;;;;;;;;;;;;;36.44;21.07;96305.69;4994695;28;19960;-46
2023/05/28 11:05:11;;;;;;;;;;;;;;;35.70;22.26;96311.63;4997274;28;19953;-46
2023/05/28 11:07:39;;;;;;;;;;;;;;;37.13;20.81;96308.78;5000987;28;19975;-49
2023/05/28 11:10:09;;;;;;;;;;;;;;;35.05;21.82;96307.25;5000747;28;19956;-50
2023/05/28 11:12:38;;;;;;;;;;;;;;;35.71;21.95;96305.00;5000073;28;19972;-52
2023/05/28 11:15:07;;;;;;;;;;;;;;;36.33;21.60;96305.97;4990467;28;19971;-50
2023/05/28 11:17:39;;;;;;;;;;;;;;;37.80;21.29;96304.88;4993751;28;20405;-50
2023/05/28 11:20:16;;;;;;;;;;;;;;;37.77;20.50;96291.75;4995898;28;19992;-47
2023/05/28 11:22:44;;;;;;;;;;;;;;;36.83;19.83;96294.78;4997766;28;19964;-49
2023/05/28 11:25:14;;;;;;;;;;;;;;;35.28;22.63;96291.69;4993515;28;19973;-54
2023/05/28 11:27:42;;;;;;;;;;;;;;;36.95;19.63;96302.41;5000401;28;19957;-51
2023/05/28 11:30:12;;;;;;;;;;;;;;;37.53;19.51;96290.28;4995808;28;19961;-52
2023/05/28 11:32:40;;;;;;;;;;;;;;;36.11;19.98;96303.25;4995006;28;19964;-47
2023/05/28 11:35:11;;;;;;;;;;;;;;;36.91;19.59;96297.88;4998815;28;19963;-48
2023/05/28 11:37:39;;;;;;;;;;;;;;;35.57;20.07;96291.34;4999525;28;19968;-50
2023/05/28 11:40:10;;;;;;;;;;;;;;;37.31;19.32;96287.66;4995567;28;19965;-48
2023/05/28 11:42:41;;;;;;;;;;;;;;;37.72;19.03;96284.47;4992328;28;19973;-44
2023/05/28 11:45:09;;;;;;;;;;;;;;;36.91;21.03;96281.38;4999582;28;19987;-54
2023/05/28 11:47:38;;;;;;;;;;;;;;;37.07;20.21;96290.84;5002042;28;20443;-47
2023/05/28 11:50:06;;;;;;;;;;;;;;;37.18;20.66;96280.34;4995069;28;19968;-47
2023/05/28 11:52:34;;;;;;;;;;;;;;;37.08;20.84;96280.66;5000648;28;19960;-47
2023/05/28 11:55:02;;;;;;;;;;;;;;;35.31;21.31;96282.84;4989548;28;19975;-52
2023/05/28 11:57:33;;;;;;;;;;;;;;;36.93;20.08;96285.44;4994946;28;20405;-49
2023/05/28 12:00:06;;;;;;;;;;;;;;;37.39;19.58;96273.09;4997695;28;19979;-45
2023/05/28 12:02:34;;;;;;;;;;;;;;;37.19;20.16;96274.50;4999128;28;20361;-48
2023/05/28 12:05:06;;;;;;;;;;;;;;;36.93;20.32;96271.69;4994866;28;19985;-48
2023/05/28 12:07:35;;;;;;;;;;;;;;;36.09;21.12;96276.09;5001097;28;19960;-49
2023/05/28 12:10:05;;;;;;;;;;;;;;;37.22;20.32;96284.06;5000040;28;19968;-46
2023/05/28 12:12:33;;;;;;;;;;;;;;;37.59;20.42;96270.88;4999033;28;19956;-49
2023/05/28 12:15:03;;;;;;;;;;;;;;;37.75;20.78;96267.31;4994011;28;20028;-47
2023/05/28 12:17:36;;;;;;;;;;;;;;;38.22;20.74;96266.63;4997873;28;19921;-46
2023/05/28 12:20:07;;;;;;;;;;;;;;;39.61;19.14;96261.31;5005812;28;20417;-45
2023/05/28 12:22:36;;;;;;;;;;;;;;;37.62;19.83;96268.28;4998324;28;19953;-45
2023/05/28 12:25:04;;;;;;;;;;;;;;;36.37;20.66;96270.44;4996197;28;19976;-49
2023/05/28 12:27:32;;;;;;;;;;;;;;;38.84;19.98;96268.91;5006523;28;19983;-48
2023/05/28 12:30:00;;;;;;;;;;;;;;;38.44;19.86;96263.69;4995590;28;19976;-47
2023/05/28 12:32:30;;;;;;;;;;;;;;;37.28;20.51;96269.84;4994502;28;19972;-48
2023/05/28 12:34:58;;;;;;;;;;;;;;;37.82;19.81;96260.50;4996889;28;20405;-46
2023/05/28 12:37:29;;;;;;;;;;;;;;;36.63;20.42;96261.56;4996151;28;19972;-55
2023/05/28 12:39:57;;;;;;;;;;;;;;;36.24;20.61;96268.63;4995795;28;19953;-48
2023/05/28 12:42:25;;;;;;;;;;;;;;;37.28;19.86;96252.53;4999795;28;19967;-45
2023/05/28 12:44:53;;;;;;;;;;;;;;;37.76;20.00;96252.41;4992530;28;19949;-48
2023/05/28 12:47:22;;;;;;;;;;;;;;;37.58;20.14;96247.22;4994666;28;19960;-46
2023/05/28 12:49:51;;;;;;;;;;;;;;;38.36;19.74;96244.41;4995844;28;19951;-47
2023/05/28 12:52:19;;;;;;;;;;;;;;;38.47;19.51;96242.91;4999526;28;19964;-50
2023/05/28 12:54:47;;;;;;;;;;;;;;;38.15;19.26;96252.56;4994973;28;19953;-48
2023/05/28 12:57:17;;;;;;;;;;;;;;;39.34;17.76;96237.00;4994077;28;19965;-46